createdAt,value
2023-10-25T00:01:37.812Z,4.23
2023-10-25T00:04:10.797Z,5.13
2023-10-25T00:06:41.095Z,5.87
2023-10-25T00:09:11.400Z,3.30
2023-10-25T00:11:41.672Z,2.50
2023-10-25T00:14:12.340Z,2.73
2023-10-25T00:16:45.269Z,3.50
2023-10-25T00:19:15.613Z,3.93
2023-10-25T00:21:46.021Z,4.13
2023-10-25T00:24:16.333Z,4.82
2023-10-25T00:26:46.537Z,5.33
2023-10-25T00:29:16.853Z,3.37
2023-10-25T00:31:52.427Z,5.40
2023-10-25T00:34:22.702Z,3.37
2023-10-25T00:36:53.006Z,3.20
2023-10-25T00:39:23.222Z,3.90
2023-10-25T00:41:53.475Z,4.57
2023-10-25T00:44:23.717Z,3.70
2023-10-25T00:46:57.033Z,3.53
2023-10-25T00:49:30.242Z,3.53
2023-10-25T00:52:00.871Z,3.03
2023-10-25T00:54:31.703Z,4.90
2023-10-25T00:57:03.616Z,3.67
2023-10-25T00:59:36.395Z,3.07
2023-10-25T01:02:11.965Z,5.72
2023-10-25T01:04:42.399Z,4.83
2023-10-25T01:07:12.708Z,3.05
2023-10-25T01:09:45.606Z,3.23
2023-10-25T01:12:21.274Z,4.23
2023-10-25T01:14:53.974Z,8.17
2023-10-25T01:17:27.562Z,3.90
2023-10-25T01:19:57.844Z,3.67
2023-10-25T01:22:30.744Z,2.93
2023-10-25T01:25:01.078Z,3.83
2023-10-25T01:27:33.729Z,2.97
2023-10-25T01:30:04.056Z,3.63
2023-10-25T01:32:34.341Z,5.67
2023-10-25T01:35:04.636Z,4.40
2023-10-25T01:37:37.494Z,4.70
2023-10-25T01:40:13.449Z,4.30
2023-10-25T01:42:43.742Z,3.70
2023-10-25T01:45:14.603Z,4.27
2023-10-25T01:47:45.060Z,4.47
2023-10-25T01:50:15.377Z,7.80
2023-10-25T01:52:48.304Z,3.87
2023-10-25T01:55:18.853Z,2.47
2023-10-25T01:57:49.322Z,4.03
2023-10-25T02:00:22.266Z,2.20
2023-10-25T02:02:52.646Z,3.53
2023-10-25T02:05:22.998Z,4.73
2023-10-25T02:07:55.844Z,4.80
2023-10-25T02:10:26.135Z,5.27
2023-10-25T02:12:56.389Z,3.63
2023-10-25T02:15:26.701Z,4.63
2023-10-25T02:17:57.011Z,3.77
2023-10-25T02:20:28.844Z,6.00
2023-10-25T02:23:01.687Z,3.93
2023-10-25T02:25:31.955Z,2.20
2023-10-25T02:28:02.196Z,4.03
2023-10-25T02:30:32.789Z,6.30
2023-10-25T02:33:06.141Z,4.03
2023-10-25T02:35:36.421Z,9.23
2023-10-25T02:38:09.919Z,5.50
2023-10-25T02:40:40.583Z,3.13
2023-10-25T02:43:10.905Z,10.13
2023-10-25T02:45:41.279Z,4.40
2023-10-25T02:48:14.377Z,2.93
2023-10-25T02:50:44.813Z,3.93
2023-10-25T02:53:19.052Z,4.10
2023-10-25T02:55:49.381Z,4.87
2023-10-25T02:58:19.774Z,5.27
2023-10-25T03:00:50.105Z,4.53
2023-10-25T03:03:20.496Z,4.33
2023-10-25T03:05:50.825Z,3.97
2023-10-25T03:08:23.810Z,3.83
2023-10-25T03:10:54.127Z,2.90
2023-10-25T03:13:24.478Z,4.93
2023-10-25T03:15:54.882Z,4.77
2023-10-25T03:18:25.235Z,6.53
2023-10-25T03:20:55.569Z,2.27
2023-10-25T03:23:28.481Z,6.40
2023-10-25T03:25:58.707Z,4.40
2023-10-25T03:28:28.981Z,4.60
2023-10-25T03:30:59.346Z,4.87
2023-10-25T03:33:29.645Z,3.37
2023-10-25T03:36:00.025Z,3.93
2023-10-25T03:38:35.553Z,5.50
2023-10-25T03:41:08.134Z,5.57
2023-10-25T03:43:40.581Z,4.07
2023-10-25T03:46:12.721Z,2.50
2023-10-25T03:48:44.250Z,4.53
2023-10-25T03:51:14.528Z,4.40
2023-10-25T03:53:47.460Z,3.10
2023-10-25T03:56:17.759Z,4.10
2023-10-25T03:58:48.060Z,4.93
2023-10-25T04:01:18.869Z,3.27
2023-10-25T04:03:49.220Z,4.40
2023-10-25T04:06:22.440Z,3.53
2023-10-25T04:08:55.383Z,4.27
2023-10-25T04:11:25.660Z,3.30
2023-10-25T04:13:55.933Z,6.33
2023-10-25T04:16:26.231Z,4.93
2023-10-25T04:18:56.888Z,6.37
2023-10-25T04:21:27.222Z,3.10
2023-10-25T04:24:00.037Z,4.77
2023-10-25T04:26:30.289Z,5.07
2023-10-25T04:29:00.735Z,2.93
2023-10-25T04:31:31.068Z,3.07
2023-10-25T04:34:02.507Z,4.13
2023-10-25T04:36:32.826Z,5.17
2023-10-25T04:39:05.793Z,3.77
2023-10-25T04:41:36.068Z,4.30
2023-10-25T04:44:06.467Z,4.03
2023-10-25T04:46:36.804Z,6.60
2023-10-25T04:49:08.399Z,5.27
2023-10-25T04:51:43.148Z,7.07
2023-10-25T04:54:16.140Z,6.83
2023-10-25T04:56:46.409Z,6.73
2023-10-25T04:59:16.685Z,5.77
2023-10-25T05:01:47.015Z,5.23
2023-10-25T05:04:17.429Z,6.70
2023-10-25T05:06:48.818Z,6.13
2023-10-25T05:09:24.021Z,6.67
2023-10-25T05:12:04.903Z,6.77
2023-10-25T05:14:36.319Z,7.70
2023-10-25T05:17:10.790Z,9.20
2023-10-25T05:19:42.345Z,9.03
2023-10-25T05:22:18.137Z,6.93
2023-10-25T05:24:52.055Z,7.07
2023-10-25T05:27:25.229Z,11.93
2023-10-25T05:30:00.725Z,5.53
2023-10-25T05:32:34.966Z,7.10
2023-10-25T05:35:09.021Z,9.67
2023-10-25T05:37:40.779Z,5.57
2023-10-25T05:40:21.618Z,5.73
2023-10-25T05:42:59.558Z,8.63
2023-10-25T05:45:32.423Z,5.70
2023-10-25T05:48:03.807Z,6.77
2023-10-25T05:50:38.168Z,6.13
2023-10-25T05:53:09.216Z,5.90
2023-10-25T05:55:43.482Z,7.70
2023-10-25T05:58:15.119Z,9.47
2023-10-25T06:00:51.069Z,7.17
2023-10-25T06:03:32.125Z,8.77
2023-10-25T06:06:06.759Z,6.20
2023-10-25T06:08:37.936Z,5.27
2023-10-25T06:11:12.309Z,6.57
2023-10-25T06:13:45.441Z,5.37
2023-10-25T06:16:16.091Z,3.50
2023-10-25T06:18:46.550Z,5.57
2023-10-25T06:21:16.853Z,5.30
2023-10-25T06:23:49.285Z,4.10
2023-10-25T06:26:22.424Z,4.40
2023-10-25T06:28:52.736Z,7.17
2023-10-25T06:31:25.612Z,9.07
2023-10-25T06:33:55.942Z,11.60
2023-10-25T06:36:27.171Z,5.10
2023-10-25T06:38:58.676Z,5.27
2023-10-25T06:41:32.993Z,4.40
2023-10-25T06:44:04.178Z,5.43
2023-10-25T06:46:35.774Z,4.87
2023-10-25T06:49:08.279Z,4.10
2023-10-25T06:51:39.967Z,6.33
2023-10-25T06:54:15.334Z,4.27
2023-10-25T06:56:49.348Z,6.40
2023-10-25T06:59:20.991Z,4.70
2023-10-25T07:02:13.068Z,5.33
2023-10-25T07:04:46.780Z,3.27
2023-10-25T07:07:24.617Z,5.77
2023-10-25T07:09:55.961Z,3.20
2023-10-25T07:12:31.093Z,3.20
2023-10-25T07:15:01.368Z,4.10
2023-10-25T07:17:31.659Z,5.28
2023-10-25T07:20:02.570Z,3.30
2023-10-25T07:22:33.293Z,5.00
2023-10-25T07:25:03.743Z,3.53
2023-10-25T07:27:37.839Z,5.00
2023-10-25T07:30:10.209Z,5.03
2023-10-25T07:32:42.778Z,4.85
2023-10-25T07:35:13.582Z,4.83
2023-10-25T07:37:43.864Z,3.57
2023-10-25T07:40:20.164Z,4.20
2023-10-25T07:42:53.124Z,3.65
2023-10-25T07:45:24.927Z,3.30
2023-10-25T07:47:55.290Z,4.70
2023-10-25T07:50:25.572Z,2.92
2023-10-25T07:52:55.831Z,4.30
2023-10-25T08:00:35.625Z,5.88
2023-10-25T08:03:05.956Z,3.70
2023-10-25T08:05:36.275Z,2.67
2023-10-25T08:08:06.732Z,3.70
2023-10-25T08:10:39.552Z,3.10
2023-10-25T08:13:15.464Z,3.80
2023-10-25T08:15:46.474Z,3.92
2023-10-25T08:18:19.461Z,4.68
2023-10-25T08:20:49.816Z,5.60
2023-10-25T08:23:23.340Z,4.43
2023-10-25T08:25:54.087Z,4.45
2023-10-25T08:28:26.994Z,2.87
2023-10-25T08:30:57.301Z,2.33
2023-10-25T08:33:27.804Z,3.22
2023-10-25T08:36:05.581Z,3.10
2023-10-25T08:38:36.164Z,3.63
2023-10-25T08:41:07.309Z,3.90
2023-10-25T08:43:43.300Z,2.67
2023-10-25T08:46:15.290Z,3.70
2023-10-25T08:48:45.707Z,3.30
2023-10-25T08:51:18.144Z,4.00
2023-10-25T08:53:51.577Z,4.72
2023-10-25T08:56:22.620Z,3.92
2023-10-25T08:58:55.509Z,3.50
2023-10-25T09:01:26.114Z,3.17
2023-10-25T09:03:56.805Z,3.28
2023-10-25T09:06:28.837Z,3.10
2023-10-25T09:09:06.924Z,3.90
2023-10-25T09:11:47.263Z,3.80
2023-10-25T09:14:20.542Z,3.38
2023-10-25T09:16:51.007Z,2.80
2023-10-25T09:19:24.575Z,7.90
2023-10-25T09:21:55.346Z,4.85
2023-10-25T09:24:25.728Z,8.88
2023-10-25T09:26:58.676Z,2.70
2023-10-25T09:29:37.078Z,5.57
2023-10-25T09:32:13.950Z,2.13
2023-10-25T09:34:45.263Z,3.08
2023-10-25T09:37:15.863Z,3.90
2023-10-25T09:39:46.456Z,3.08
2023-10-25T09:42:19.412Z,5.82
2023-10-25T09:44:52.681Z,3.40
2023-10-25T09:47:29.327Z,3.03
2023-10-25T09:50:17.135Z,4.80
2023-10-25T09:52:55.676Z,5.00
2023-10-25T09:55:35.304Z,5.60
2023-10-25T09:58:11.948Z,4.97
2023-10-25T10:00:56.880Z,5.83
2023-10-25T10:03:46.012Z,7.57
2023-10-25T10:06:36.065Z,6.27
2023-10-25T10:09:20.796Z,7.80
2023-10-25T10:11:57.353Z,5.53
2023-10-25T10:14:37.407Z,5.60
2023-10-25T10:17:15.588Z,6.27
2023-10-25T10:19:48.302Z,6.30
2023-10-25T10:22:20.225Z,7.03
2023-10-25T10:24:54.554Z,10.43
2023-10-25T10:27:31.737Z,6.80
2023-10-25T10:30:01.983Z,6.50
2023-10-25T10:32:42.175Z,6.37
2023-10-25T10:35:25.061Z,6.47
2023-10-25T10:37:59.319Z,7.37
2023-10-25T10:40:29.932Z,6.37
2023-10-25T10:43:00.187Z,8.73
2023-10-25T10:45:34.268Z,7.07
2023-10-25T10:48:17.145Z,7.63
2023-10-25T10:50:49.148Z,6.93
2023-10-25T10:53:19.640Z,6.00
2023-10-25T10:55:50.250Z,6.40
2023-10-25T10:58:21.617Z,6.37
2023-10-25T11:00:52.209Z,7.53
2023-10-25T11:03:29.565Z,7.03
2023-10-25T11:06:02.645Z,7.77
2023-10-25T11:08:33.574Z,7.90
2023-10-25T11:11:04.921Z,8.77
2023-10-25T11:13:35.295Z,6.50
2023-10-25T11:16:12.319Z,7.13
2023-10-25T11:18:45.203Z,7.70
2023-10-25T11:21:16.819Z,7.38
2023-10-25T11:23:47.170Z,6.63
2023-10-25T11:26:21.271Z,6.73
2023-10-25T11:28:51.676Z,6.32
2023-10-25T11:31:23.168Z,6.18
2023-10-25T11:33:56.774Z,9.07
2023-10-25T11:36:29.954Z,7.83
2023-10-25T11:39:12.086Z,10.33
2023-10-25T11:41:43.703Z,6.93
2023-10-25T11:44:14.242Z,6.37
2023-10-25T11:46:46.252Z,6.77
2023-10-25T11:49:21.708Z,8.13
2023-10-25T11:51:52.072Z,6.68
2023-10-25T11:54:22.374Z,7.28
2023-10-25T11:56:52.801Z,6.35
2023-10-25T11:59:23.103Z,8.27
2023-10-25T12:01:53.420Z,7.38
2023-10-25T12:04:26.399Z,6.90
2023-10-25T12:06:59.398Z,7.70
2023-10-25T12:09:32.375Z,6.23
2023-10-25T12:12:02.634Z,7.27
2023-10-25T12:14:32.994Z,10.77
2023-10-25T12:17:03.411Z,6.30
2023-10-25T12:19:36.887Z,8.70
2023-10-25T12:22:12.219Z,6.90
2023-10-25T12:24:44.870Z,10.87
2023-10-25T12:27:18.323Z,7.45
2023-10-25T12:29:51.182Z,10.27
2023-10-25T12:32:23.238Z,9.23
2023-10-25T12:34:56.126Z,9.00
2023-10-25T12:37:27.193Z,8.50
2023-10-25T12:39:57.454Z,7.63
2023-10-25T12:42:27.720Z,7.75
2023-10-25T12:44:58.309Z,9.10
2023-10-25T12:47:28.636Z,7.53
2023-10-25T12:50:01.597Z,8.02
2023-10-25T12:52:31.905Z,8.02
2023-10-25T12:55:02.154Z,8.10
2023-10-25T12:57:32.794Z,7.57
2023-10-25T13:00:03.868Z,12.95
2023-10-25T13:02:34.280Z,6.78
2023-10-25T13:05:08.552Z,7.32
2023-10-25T13:07:40.315Z,8.15
2023-10-25T13:10:12.338Z,5.70
2023-10-25T13:12:42.675Z,7.30
2023-10-25T13:15:16.539Z,8.30
2023-10-25T13:17:48.130Z,5.97
2023-10-25T13:20:21.113Z,5.53
2023-10-25T13:22:51.351Z,6.05
2023-10-25T13:25:21.578Z,5.28
2023-10-25T13:27:51.915Z,5.10
2023-10-25T13:30:22.374Z,5.30
2023-10-25T13:32:52.868Z,6.70
2023-10-25T13:35:25.857Z,7.43
2023-10-25T13:37:56.825Z,6.55
2023-10-25T13:40:28.159Z,5.57
2023-10-25T13:42:58.552Z,5.40
2023-10-25T13:45:28.884Z,6.57
2023-10-25T13:48:01.978Z,4.90
2023-10-25T13:50:34.948Z,3.50
2023-10-25T13:53:05.265Z,5.03
2023-10-25T13:55:41.380Z,5.65
2023-10-25T13:58:16.830Z,5.60
2023-10-25T14:00:53.098Z,4.00
2023-10-25T14:03:25.839Z,3.95
2023-10-25T14:06:04.577Z,3.00
2023-10-25T14:08:35.716Z,3.55
2023-10-25T14:11:06.020Z,5.05
2023-10-25T14:13:39.665Z,4.70
2023-10-25T14:16:13.082Z,4.22
2023-10-25T14:18:43.404Z,2.50
2023-10-25T14:21:19.036Z,3.67
2023-10-25T14:23:50.327Z,3.85
2023-10-25T14:26:21.084Z,3.33
2023-10-25T14:28:51.465Z,2.95
2023-10-25T14:31:21.884Z,2.97
2023-10-25T14:33:53.276Z,2.58
2023-10-25T14:36:30.127Z,3.83
2023-10-25T14:39:00.733Z,3.25
2023-10-25T14:41:32.827Z,3.70
2023-10-25T14:44:04.983Z,3.13
2023-10-25T14:46:35.459Z,2.38
2023-10-25T14:49:08.891Z,2.35
2023-10-25T14:51:43.476Z,2.70
2023-10-25T14:54:15.146Z,3.30
2023-10-25T14:56:45.531Z,3.08
2023-10-25T14:59:15.816Z,2.83
2023-10-25T15:01:46.103Z,2.97
2023-10-25T15:04:17.031Z,3.03
2023-10-25T15:06:49.973Z,2.65
2023-10-25T15:09:21.421Z,3.50
2023-10-25T15:11:51.734Z,3.10
2023-10-25T15:14:22.029Z,3.10
2023-10-25T15:16:52.940Z,2.75
2023-10-25T15:19:23.202Z,2.40
2023-10-25T15:21:57.058Z,2.58
2023-10-25T15:24:27.783Z,2.00
2023-10-25T15:27:06.991Z,2.30
2023-10-25T15:29:38.305Z,2.47
2023-10-25T15:32:10.760Z,2.13
2023-10-25T15:34:41.194Z,2.75
2023-10-25T15:37:14.288Z,2.38
2023-10-25T15:39:55.700Z,1.75
2023-10-25T15:42:38.724Z,1.60
2023-10-25T15:45:15.235Z,1.85
2023-10-25T15:47:46.280Z,2.10
2023-10-25T15:50:16.734Z,4.07
2023-10-25T15:53:02.225Z,1.80
2023-10-25T15:55:45.240Z,2.25
2023-10-25T15:58:16.754Z,4.05
2023-10-25T16:03:22.361Z,2.60
2023-10-25T16:05:52.682Z,3.35
2023-10-25T16:08:25.748Z,2.78
2023-10-25T16:11:00.179Z,3.17
2023-10-25T16:13:31.108Z,3.60
2023-10-25T16:21:18.201Z,2.83
2023-10-25T16:23:56.302Z,4.32
2023-10-25T16:26:27.749Z,3.17
2023-10-25T16:28:58.059Z,3.50
2023-10-25T16:31:28.392Z,3.35
2023-10-25T16:33:58.694Z,3.00
2023-10-25T16:36:29.037Z,3.60
2023-10-25T16:39:01.966Z,5.65
2023-10-25T16:41:34.746Z,4.38
2023-10-25T16:44:05.053Z,5.18
2023-10-25T16:46:35.625Z,4.47
2023-10-25T16:49:05.921Z,5.07
2023-10-25T16:51:36.439Z,4.47
2023-10-25T16:54:09.608Z,4.45
2023-10-25T16:56:41.328Z,5.05
2023-10-25T16:59:11.589Z,4.75
2023-10-25T17:01:42.223Z,5.80
2023-10-25T17:04:12.638Z,5.00
2023-10-25T17:06:43.333Z,4.32
2023-10-25T17:09:16.817Z,4.95
2023-10-25T17:11:47.423Z,7.88
2023-10-25T17:14:17.832Z,6.38
2023-10-25T17:16:48.956Z,4.90
2023-10-25T17:19:19.734Z,5.00
2023-10-25T17:21:50.086Z,5.22
2023-10-25T17:24:23.979Z,3.90
2023-10-25T17:26:56.801Z,4.93
2023-10-25T17:29:27.118Z,7.18
2023-10-25T17:32:00.014Z,6.10
2023-10-25T17:34:30.310Z,6.13
2023-10-25T17:37:02.002Z,5.28
2023-10-25T17:39:36.077Z,5.47
2023-10-25T17:42:07.039Z,5.65
2023-10-25T17:44:37.656Z,5.45
2023-10-25T17:47:08.303Z,4.97
2023-10-25T17:49:38.638Z,6.82
2023-10-25T17:52:09.432Z,7.32
2023-10-25T17:54:43.256Z,10.50
2023-10-25T17:57:13.508Z,10.82
2023-10-25T17:59:43.975Z,9.75
2023-10-25T18:02:14.228Z,10.70
2023-10-25T18:04:44.592Z,9.75
2023-10-25T18:07:15.016Z,8.90
2023-10-25T18:09:51.228Z,13.40
2023-10-25T18:12:21.540Z,14.55
2023-10-25T18:14:57.706Z,20.83
2023-10-25T18:17:28.787Z,22.10
2023-10-25T18:19:59.594Z,20.60
2023-10-25T18:22:29.856Z,8.40
2023-10-25T18:25:04.303Z,5.15
2023-10-25T18:27:34.712Z,3.97
2023-10-25T18:30:23.332Z,5.07
2023-10-25T18:32:56.868Z,3.95
2023-10-25T18:35:28.714Z,4.03
2023-10-25T18:38:01.029Z,5.22
2023-10-25T18:40:33.941Z,9.63
2023-10-25T18:43:04.196Z,12.63
2023-10-25T18:45:34.596Z,7.93
2023-10-25T18:48:05.082Z,5.07
2023-10-25T18:50:38.556Z,3.70
2023-10-25T18:53:08.857Z,8.43
2023-10-25T18:55:44.334Z,5.00
2023-10-25T18:58:17.892Z,3.80
2023-10-25T19:00:49.140Z,9.23
2023-10-25T19:03:20.476Z,2.50
2023-10-25T19:06:34.081Z,6.00
2023-10-25T19:08:41.373Z,2.28
2023-10-25T19:11:14.956Z,2.42
2023-10-25T19:13:45.502Z,4.00
2023-10-25T19:16:15.826Z,4.30
2023-10-25T19:18:46.131Z,2.47
2023-10-25T19:21:17.683Z,2.40
2023-10-25T19:23:50.549Z,2.28
2023-10-25T19:26:30.536Z,1.55
2023-10-25T19:29:07.674Z,2.70
2023-10-25T19:31:38.895Z,2.80
2023-10-25T19:34:09.349Z,3.03
2023-10-25T19:36:39.748Z,4.60
2023-10-25T19:39:11.573Z,7.53
2023-10-25T19:41:46.247Z,7.20
2023-10-25T19:44:16.533Z,8.52
2023-10-25T19:46:46.819Z,14.77
2023-10-25T19:49:17.846Z,15.93
2023-10-25T19:51:48.112Z,6.13
2023-10-25T19:54:19.988Z,2.30
2023-10-25T19:56:56.601Z,2.53
2023-10-25T19:59:28.120Z,4.07
2023-10-25T20:01:58.466Z,2.50
2023-10-25T20:04:29.475Z,3.40
2023-10-25T20:06:59.940Z,3.03
2023-10-25T20:09:30.206Z,2.53
2023-10-25T20:12:03.485Z,2.58
2023-10-25T20:14:33.924Z,2.35
2023-10-25T20:17:04.149Z,2.55
2023-10-25T20:19:34.407Z,1.83
2023-10-25T20:22:04.663Z,2.58
2023-10-25T20:24:35.300Z,2.10
2023-10-25T20:27:08.517Z,1.92
2023-10-25T20:29:41.723Z,2.17
2023-10-25T20:32:12.583Z,2.80
2023-10-25T20:34:43.212Z,2.47
2023-10-25T20:37:13.895Z,2.20
2023-10-25T20:39:44.150Z,5.35
2023-10-25T20:42:17.067Z,2.63
2023-10-25T20:44:50.173Z,2.45
2023-10-25T20:47:20.499Z,3.58
2023-10-25T20:49:50.855Z,2.50
2023-10-25T20:52:21.093Z,4.00
2023-10-25T20:54:51.792Z,4.28
2023-10-25T20:57:24.706Z,2.60
2023-10-25T20:59:57.283Z,2.40
2023-10-25T21:02:27.609Z,2.50
2023-10-25T21:04:57.922Z,2.03
2023-10-25T21:07:28.761Z,2.00
2023-10-25T21:09:59.059Z,2.65
2023-10-25T21:12:31.895Z,2.85
2023-10-25T21:15:04.663Z,2.38
2023-10-25T21:17:34.986Z,2.60
2023-10-25T21:20:06.148Z,3.40
2023-10-25T21:22:36.375Z,3.60
2023-10-25T21:25:07.766Z,4.65
2023-10-25T21:27:40.669Z,4.18
2023-10-25T21:30:11.899Z,3.45
2023-10-25T21:32:42.356Z,3.00
2023-10-25T21:35:15.086Z,3.00
2023-10-25T21:37:47.626Z,3.10
2023-10-25T21:40:18.923Z,3.40
2023-10-25T21:42:51.910Z,3.25
2023-10-25T21:45:22.316Z,3.72
2023-10-25T21:47:52.691Z,2.97
2023-10-25T21:50:23.061Z,3.08
2023-10-25T21:52:53.350Z,2.78
2023-10-25T21:55:26.608Z,2.63
2023-10-25T21:58:46.038Z,3.75
2023-10-25T22:00:56.527Z,2.22
2023-10-25T22:03:33.344Z,2.33
2023-10-25T22:06:04.414Z,1.98
2023-10-25T22:08:34.679Z,1.70
2023-10-25T22:11:05.044Z,1.77
2023-10-25T22:13:38.169Z,2.30
2023-10-25T22:16:09.246Z,1.40
2023-10-25T22:18:39.607Z,1.48
2023-10-25T22:21:10.006Z,1.73
2023-10-25T22:23:40.271Z,1.80
2023-10-25T22:26:10.580Z,1.83
2023-10-25T22:28:45.382Z,1.90
2023-10-25T22:31:16.285Z,2.30
2023-10-25T22:33:46.655Z,2.13
2023-10-25T22:36:17.171Z,2.05
2023-10-25T22:38:47.511Z,2.33
2023-10-25T22:41:26.837Z,2.30
2023-10-25T22:44:00.664Z,2.15
2023-10-25T22:46:31.026Z,3.95
2023-10-25T22:49:01.411Z,4.80
2023-10-25T22:51:31.785Z,30.55
2023-10-25T22:54:04.809Z,11.95
2023-10-25T22:56:36.839Z,10.82
2023-10-25T22:59:13.182Z,9.10
2023-10-25T23:01:43.439Z,4.82
2023-10-25T23:04:13.977Z,7.53
2023-10-25T23:06:44.351Z,5.75
2023-10-25T23:09:14.632Z,5.88
2023-10-25T23:11:44.926Z,5.60
2023-10-25T23:14:17.872Z,4.93
2023-10-25T23:16:48.154Z,4.80
2023-10-25T23:19:18.574Z,6.03
2023-10-25T23:21:48.851Z,6.90
2023-10-25T23:24:19.179Z,5.90
2023-10-25T23:26:51.496Z,6.70
2023-10-25T23:29:24.742Z,6.47
2023-10-25T23:31:55.005Z,7.30
2023-10-25T23:34:25.437Z,9.68
2023-10-25T23:36:55.718Z,9.30
2023-10-25T23:39:26.013Z,11.95
2023-10-25T23:41:56.358Z,12.95
2023-10-25T23:44:29.279Z,12.40
2023-10-25T23:46:59.502Z,15.25
2023-10-25T23:49:29.930Z,15.75
2023-10-25T23:52:00.172Z,16.15
2023-10-25T23:54:52.606Z,14.98
2023-10-25T23:57:20.886Z,15.07
2023-10-25T23:59:53.826Z,15.35
